Time;durP1;ratioP1;P1;durP2;ratioP2;P2;SDS_P1;SDS_P2;PMS_P1;PMS_P2;Temp;Humidity;BMP_temperature;BMP_pressure;BME280_temperature;BME280_humidity;BME280_pressure;Samples;Min_cycle;Max_cycle;Signal;HPM_P1;HPM_P2
2022/04/12 00:01:40;;;;;;;;;7.75;6.00;;;;;16.69;54.84;100312.56;5074997;28;45322;-71
2022/04/12 00:04:06;;;;;;;;;10.25;5.00;;;;;16.68;54.92;100310.88;5079582;28;45556;-71
2022/04/12 00:06:32;;;;;;;;;4.75;4.75;;;;;16.67;55.07;100303.09;5080540;28;45437;-71
2022/04/12 00:08:58;;;;;;;;;5.00;4.00;;;;;16.67;55.11;100297.84;5080745;28;45270;-71
2022/04/12 00:11:24;;;;;;;;;4.00;4.00;;;;;16.64;55.28;100290.97;5080296;27;45275;-70
2022/04/12 00:13:50;;;;;;;;;5.00;3.75;;;;;16.64;55.28;100298.84;5080480;27;45456;-70
2022/04/12 00:16:15;;;;;;;;;5.00;3.75;;;;;16.62;55.39;100312.97;5080364;28;45347;-71
2022/04/12 00:21:24;;;;;;;;;3.00;3.00;;;;;16.60;55.34;100301.72;5080507;28;45406;-71
2022/04/12 00:23:50;;;;;;;;;6.00;5.50;;;;;16.58;55.34;100307.06;5080414;27;45497;-71
2022/04/12 00:26:16;;;;;;;;;4.25;4.00;;;;;16.56;55.52;100303.69;5080290;27;46002;-72
2022/04/12 00:28:41;;;;;;;;;7.00;5.25;;;;;16.54;55.70;100299.47;5079917;27;45670;-71
2022/04/12 00:31:08;;;;;;;;;5.00;4.75;;;;;16.51;55.87;100310.13;5080118;28;45302;-70
2022/04/12 00:33:36;;;;;;;;;5.50;5.00;;;;;16.50;55.89;100311.91;5080478;27;45446;-70
2022/04/12 00:36:04;;;;;;;;;4.25;4.00;;;;;16.48;56.04;100312.94;5073664;27;45437;-71
2022/04/12 00:38:33;;;;;;;;;4.00;3.00;;;;;16.46;56.18;100320.91;5079003;27;45669;-70
2022/04/12 00:41:02;;;;;;;;;5.50;5.50;;;;;16.41;56.11;100318.53;5080087;27;45382;-71
2022/04/12 00:43:29;;;;;;;;;4.00;4.00;;;;;16.39;56.48;100314.31;5080210;27;45311;-74
2022/04/12 00:46:00;;;;;;;;;4.25;4.00;;;;;16.37;56.35;100313.56;5079833;27;46071;-72
2022/04/12 00:48:29;;;;;;;;;6.00;5.50;;;;;16.34;56.48;100305.88;5078735;28;45460;-72
2022/04/12 00:50:55;;;;;;;;;4.00;4.00;;;;;16.27;56.72;100299.31;5080039;27;45259;-71
2022/04/12 00:53:20;;;;;;;;;4.50;4.50;;;;;16.22;56.87;100301.31;5080135;27;45417;-72
2022/04/12 00:55:46;;;;;;;;;6.25;4.25;;;;;16.17;57.18;100287.66;5079839;27;46354;-72
2022/04/12 00:58:11;;;;;;;;;4.25;4.25;;;;;16.17;57.21;100292.88;5079858;27;45251;-71
2022/04/12 01:00:37;;;;;;;;;3.00;3.00;;;;;16.17;57.23;100295.50;5078478;28;45391;-70
2022/04/12 01:03:03;;;;;;;;;7.25;6.00;;;;;16.13;56.95;100297.47;5079880;27;45401;-71
2022/04/12 01:05:29;;;;;;;;;5.00;5.00;;;;;16.09;57.39;100296.81;5079747;27;45652;-70
2022/04/12 01:07:55;;;;;;;;;3.00;3.00;;;;;16.06;57.66;100283.88;5079958;27;45338;-70
2022/04/12 01:10:22;;;;;;;;;4.00;4.00;;;;;16.01;57.48;100285.91;5076718;27;45243;-69
2022/04/12 01:12:51;;;;;;;;;6.00;5.00;;;;;16.01;57.43;100291.13;5078552;28;45322;-70
2022/04/12 01:15:19;;;;;;;;;5.00;4.00;;;;;15.96;57.51;100282.69;5066803;28;46473;-70
2022/04/12 01:17:46;;;;;;;;;4.00;4.00;;;;;15.94;57.67;100276.72;5078003;28;45410;-70
2022/04/12 01:20:14;;;;;;;;;7.50;4.75;;;;;15.90;57.81;100279.59;5079859;27;45501;-69
2022/04/12 01:22:58;;;;;;;;;4.50;3.00;;;;;15.85;57.87;100281.63;5079769;27;45250;-69
2022/04/12 01:25:23;;;;;;;;;6.00;5.25;;;;;15.82;58.32;100277.41;5079603;28;45692;-70
2022/04/12 01:27:49;;;;;;;;;4.00;4.00;;;;;15.80;58.21;100287.13;5077368;27;45212;-70
2022/04/12 01:30:15;;;;;;;;;8.25;4.00;;;;;15.78;58.51;100287.19;5068033;28;45273;-70
2022/04/12 01:32:41;;;;;;;;;7.00;5.50;;;;;15.75;58.44;100287.38;5079198;28;45292;-69
2022/04/12 01:35:07;;;;;;;;;6.00;6.00;;;;;15.75;58.45;100284.75;5077887;27;45224;-70
2022/04/12 01:37:33;;;;;;;;;5.00;3.25;;;;;15.73;58.46;100283.16;5074586;28;45892;-69
2022/04/12 01:39:58;;;;;;;;;5.25;5.25;;;;;15.70;58.79;100284.19;5079660;27;45426;-70
2022/04/12 01:42:24;;;;;;;;;4.75;4.75;;;;;15.67;58.78;100286.97;5079149;27;45264;-71
2022/04/12 01:44:49;;;;;;;;;8.00;5.75;;;;;15.65;58.77;100278.38;5079322;27;46082;-70
2022/04/12 01:47:17;;;;;;;;;6.00;5.00;;;;;15.64;58.82;100283.69;5079164;27;45323;-71
2022/04/12 01:49:42;;;;;;;;;4.00;4.00;;;;;15.61;58.65;100296.94;5080201;28;45240;-70
2022/04/12 01:52:10;;;;;;;;;7.25;4.00;;;;;15.57;59.04;100291.00;5082851;27;45250;-70
2022/04/12 01:54:36;;;;;;;;;4.75;3.00;;;;;15.54;58.73;100304.25;5082688;27;46396;-70
2022/04/12 01:57:01;;;;;;;;;4.50;3.00;;;;;15.50;59.02;100306.19;5082600;28;45321;-72
2022/04/12 01:59:26;;;;;;;;;4.75;3.25;;;;;15.48;59.42;100310.69;5081592;28;45291;-73
2022/04/12 02:01:52;;;;;;;;;6.00;5.50;;;;;15.44;59.24;100303.94;5082500;27;45156;-72
2022/04/12 02:04:17;;;;;;;;;4.50;3.25;;;;;15.44;59.22;100293.47;5082624;27;45617;-73
2022/04/12 02:06:42;;;;;;;;;4.00;4.00;;;;;15.42;59.73;100297.94;5081175;28;45323;-71
2022/04/12 02:09:08;;;;;;;;;4.75;3.25;;;;;15.40;59.50;100299.75;5082730;27;45299;-71
2022/04/12 02:11:33;;;;;;;;;4.75;4.00;;;;;15.37;59.54;100294.69;5082280;27;45402;-70
2022/04/12 02:13:58;;;;;;;;;5.75;4.75;;;;;15.33;59.65;100290.56;5081057;27;46129;-70
2022/04/12 02:16:24;;;;;;;;;6.50;5.00;;;;;15.28;60.04;100281.28;5079552;27;45256;-70
2022/04/12 02:18:49;;;;;;;;;3.00;3.00;;;;;15.25;59.68;100281.44;5071417;28;45358;-69
2022/04/12 02:21:14;;;;;;;;;3.00;3.00;;;;;15.21;60.29;100275.50;5082104;27;45711;-68
2022/04/12 02:23:40;;;;;;;;;4.25;4.00;;;;;15.18;60.23;100273.91;5082262;27;46270;-69
2022/04/12 02:26:05;;;;;;;;;4.75;4.50;;;;;15.18;60.15;100259.97;5082213;27;45448;-69
2022/04/12 02:28:30;;;;;;;;;4.00;3.75;;;;;15.16;60.22;100267.91;5082078;27;45499;-69
2022/04/12 02:30:56;;;;;;;;;5.00;4.25;;;;;15.16;60.17;100267.91;5080541;27;45597;-70
2022/04/12 02:33:21;;;;;;;;;6.00;4.50;;;;;15.16;60.36;100265.28;5080873;27;45388;-70
2022/04/12 02:35:47;;;;;;;;;4.00;4.00;;;;;15.17;60.20;100268.75;5075648;27;45303;-69
2022/04/12 02:38:13;;;;;;;;;3.25;3.25;;;;;15.15;60.20;100262.75;5082226;27;45403;-71
2022/04/12 02:40:41;;;;;;;;;3.00;3.00;;;;;15.16;60.28;100272.28;5081899;27;45472;-71
2022/04/12 02:43:07;;;;;;;;;4.00;4.00;;;;;15.13;59.88;100277.69;5081899;27;45213;-71
2022/04/12 02:45:32;;;;;;;;;6.25;3.75;;;;;15.13;60.11;100288.16;5081628;28;45454;-71
2022/04/12 02:47:57;;;;;;;;;4.00;4.00;;;;;15.08;60.29;100291.03;5082169;27;45395;-71
2022/04/12 02:50:23;;;;;;;;;6.25;3.00;;;;;15.06;60.09;100292.91;5081711;27;45329;-70
2022/04/12 02:52:48;;;;;;;;;5.25;4.00;;;;;15.07;60.20;100280.66;5082041;27;45356;-70
2022/04/12 02:55:14;;;;;;;;;5.75;5.25;;;;;15.08;60.10;100279.72;5081605;28;45260;-70
2022/04/12 02:57:39;;;;;;;;;5.25;3.25;;;;;15.05;59.98;100285.97;5081934;27;45358;-70
2022/04/12 03:00:06;;;;;;;;;5.00;5.00;;;;;15.05;59.97;100287.75;5081668;27;45476;-71
2022/04/12 03:02:31;;;;;;;;;7.25;5.00;;;;;14.99;60.22;100270.56;5080430;27;45650;-71
2022/04/12 03:04:56;;;;;;;;;4.00;4.00;;;;;14.99;59.92;100281.03;5081380;27;45501;-72
2022/04/12 03:07:22;;;;;;;;;6.25;5.00;;;;;14.96;59.83;100270.75;5081752;27;45304;-73
2022/04/12 03:09:47;;;;;;;;;5.50;4.00;;;;;14.94;59.73;100258.69;5081429;27;45750;-72
2022/04/12 03:12:12;;;;;;;;;6.25;4.00;;;;;14.91;59.78;100263.16;5076510;28;47952;-73
2022/04/12 03:14:38;;;;;;;;;5.00;4.00;;;;;14.89;60.00;100246.69;5076738;28;45398;-73
2022/04/12 03:17:04;;;;;;;;;5.00;3.00;;;;;14.90;59.78;100243.13;5079979;28;45277;-73
2022/04/12 03:19:30;;;;;;;;;6.25;4.75;;;;;14.89;59.69;100236.22;5081146;27;45488;-73
2022/04/12 03:21:55;;;;;;;;;4.00;4.00;;;;;14.89;59.94;100241.47;5081554;27;45572;-73
2022/04/12 03:24:23;;;;;;;;;4.50;3.25;;;;;14.88;59.43;100239.78;5081120;27;45226;-72
2022/04/12 03:26:50;;;;;;;;;6.50;4.75;;;;;14.85;59.55;100232.09;5080020;27;45331;-72
2022/04/12 03:29:16;;;;;;;;;4.00;3.50;;;;;14.83;59.38;100233.94;5079473;27;45511;-69
2022/04/12 03:31:41;;;;;;;;;6.00;4.00;;;;;14.84;59.71;100250.47;5080029;27;46206;-69
2022/04/12 03:34:07;;;;;;;;;4.00;4.00;;;;;14.81;59.48;100235.75;5078722;28;45438;-69
2022/04/12 03:36:32;;;;;;;;;4.50;4.00;;;;;14.81;59.35;100246.22;5073882;27;45296;-70
2022/04/12 03:38:58;;;;;;;;;3.50;3.00;;;;;14.79;59.43;100245.47;5079979;27;45345;-70
2022/04/12 03:41:23;;;;;;;;;4.00;4.00;;;;;14.77;59.32;100244.72;5081016;27;45362;-70
2022/04/12 03:43:52;;;;;;;;;3.50;3.25;;;;;14.77;59.20;100241.25;5080955;27;45290;-71
2022/04/12 03:46:18;;;;;;;;;6.50;2.50;;;;;14.74;58.98;100244.88;5081238;28;45350;-70
2022/04/12 03:48:43;;;;;;;;;6.00;4.50;;;;;14.73;59.02;100258.03;5081066;28;45433;-70
2022/04/12 03:51:10;;;;;;;;;2.75;2.75;;;;;14.69;58.82;100267.81;5081010;27;45467;-76
2022/04/12 03:53:36;;;;;;;;;3.50;3.50;;;;;14.70;58.55;100272.13;5080881;27;45741;-74
2022/04/12 03:56:04;;;;;;;;;6.00;3.75;;;;;14.70;58.48;100269.50;5081030;27;45434;-74
2022/04/12 03:58:29;;;;;;;;;3.75;3.00;;;;;14.70;58.35;100264.28;5080751;28;45347;-74
2022/04/12 04:00:55;;;;;;;;;3.00;3.00;;;;;14.68;58.26;100260.91;5080705;27;46356;-67
2022/04/12 04:03:20;;;;;;;;;5.00;3.00;;;;;14.66;58.05;100252.28;5080812;27;45277;-67
2022/04/12 04:05:46;;;;;;;;;4.50;4.00;;;;;14.64;58.19;100246.28;5081068;27;45491;-68
2022/04/12 04:08:11;;;;;;;;;6.50;3.50;;;;;14.67;57.79;100251.38;5079348;27;45494;-68
2022/04/12 04:10:37;;;;;;;;;4.00;2.00;;;;;14.66;58.02;100252.28;5080493;27;46105;-70
2022/04/12 04:13:08;;;;;;;;;3.00;3.00;;;;;14.64;57.88;100243.69;5080513;27;45374;-69
2022/04/12 04:15:37;;;;;;;;;4.00;2.25;;;;;14.62;57.53;100248.16;5080639;27;45145;-69
2022/04/12 04:18:03;;;;;;;;;3.00;2.25;;;;;14.60;57.71;100261.28;5079256;28;45563;-69
2022/04/12 04:20:28;;;;;;;;;3.00;3.00;;;;;14.58;57.51;100270.13;5080472;27;46874;-70
2022/04/12 04:22:54;;;;;;;;;5.25;4.00;;;;;14.55;57.30;100265.91;5080313;27;45324;-69
2022/04/12 04:25:19;;;;;;;;;3.75;3.00;;;;;14.55;57.63;100252.81;5080518;28;45584;-69
2022/04/12 04:27:44;;;;;;;;;3.00;2.00;;;;;14.56;57.45;100257.13;5080022;27;45449;-70
2022/04/12 04:30:10;;;;;;;;;4.00;3.00;;;;;14.55;57.51;100254.59;5080357;27;46228;-69
2022/04/12 04:32:36;;;;;;;;;5.00;4.00;;;;;14.52;57.52;100258.22;5080128;27;45523;-70
2022/04/12 04:35:03;;;;;;;;;2.25;2.00;;;;;14.54;57.25;100268.59;5079554;27;45479;-71
2022/04/12 04:37:28;;;;;;;;;2.50;2.50;;;;;14.52;57.36;100267.84;5074778;28;45281;-71
2022/04/12 04:39:54;;;;;;;;;4.75;4.00;;;;;14.49;57.13;100268.00;5080231;27;46411;-71
2022/04/12 04:42:23;;;;;;;;;5.00;4.00;;;;;14.46;57.21;100268.16;5080034;27;45265;-71
2022/04/12 04:44:48;;;;;;;;;4.00;3.00;;;;;14.43;57.29;100274.41;5080231;28;45327;-70
2022/04/12 04:47:14;;;;;;;;;5.75;4.00;;;;;14.40;57.49;100284.09;5079773;27;45330;-69
2022/04/12 04:49:39;;;;;;;;;4.25;4.00;;;;;14.37;57.41;100279.03;5080344;27;45330;-74
2022/04/12 04:52:06;;;;;;;;;4.00;3.00;;;;;14.35;57.53;100278.25;5080064;27;45515;-74
2022/04/12 04:54:31;;;;;;;;;4.75;3.00;;;;;14.32;57.64;100287.13;5080223;27;45488;-74
2022/04/12 04:56:56;;;;;;;;;3.75;3.00;;;;;14.25;57.51;100296.19;5079900;28;45458;-72
2022/04/12 04:59:22;;;;;;;;;4.75;4.00;;;;;14.21;57.43;100295.47;5079863;27;46550;-72
2022/04/12 05:01:47;;;;;;;;;4.00;4.00;;;;;14.19;57.80;100289.47;5078272;28;45335;-72
2022/04/12 05:04:13;;;;;;;;;4.00;3.50;;;;;14.20;57.52;100285.94;5079822;27;45340;-71
2022/04/12 05:06:38;;;;;;;;;3.25;3.25;;;;;14.18;57.50;100293.00;5079796;27;45340;-72
2022/04/12 05:09:06;;;;;;;;;2.25;2.25;;;;;14.14;57.77;100288.88;5079909;27;45352;-73
2022/04/12 05:11:31;;;;;;;;;6.25;3.25;;;;;14.13;57.66;100289.78;5079716;27;45232;-73
2022/04/12 05:13:57;;;;;;;;;5.00;4.50;;;;;14.12;58.05;100287.25;5078054;28;45222;-73
2022/04/12 05:16:22;;;;;;;;;4.75;3.00;;;;;14.10;57.76;100305.63;5079272;27;45395;-73
2022/04/12 05:18:48;;;;;;;;;5.00;4.00;;;;;14.07;58.06;100303.16;5079444;27;46368;-73
2022/04/12 05:21:13;;;;;;;;;4.25;4.25;;;;;14.07;58.01;100313.63;5078177;28;45457;-73
2022/04/12 05:23:38;;;;;;;;;4.75;3.50;;;;;14.08;58.14;100311.84;5079763;27;45316;-73
2022/04/12 05:26:04;;;;;;;;;10.25;6.25;;;;;14.08;58.20;100314.47;5082013;27;45342;-73
2022/04/12 05:28:29;;;;;;;;;6.75;4.75;;;;;14.11;58.20;100312.53;5082425;27;45409;-73
2022/04/12 05:30:55;;;;;;;;;8.75;5.25;;;;;14.08;58.13;100310.09;5082377;27;45520;-73
2022/04/12 05:33:21;;;;;;;;;5.00;3.50;;;;;14.13;58.04;100315.06;5083209;27;45379;-73
2022/04/12 05:35:46;;;;;;;;;4.00;3.00;;;;;14.15;57.94;100324.53;5076229;27;45288;-73
2022/04/12 05:38:11;;;;;;;;;6.75;5.25;;;;;14.16;58.24;100321.00;5082469;27;46247;-73
2022/04/12 05:40:37;;;;;;;;;9.50;9.50;;;;;14.21;58.00;100312.91;5081277;27;45326;-69
2022/04/12 05:43:02;;;;;;;;;11.00;5.00;;;;;14.22;57.51;100315.50;5082769;27;45272;-70
2022/04/12 05:45:28;;;;;;;;;3.50;3.25;;;;;14.26;58.00;100314.41;5082582;27;45246;-71
2022/04/12 05:47:54;;;;;;;;;5.75;4.75;;;;;14.31;57.81;100314.19;5081180;28;46296;-71
2022/04/12 05:50:22;;;;;;;;;3.75;3.75;;;;;14.37;57.81;100318.25;5082591;27;45763;-71
2022/04/12 05:52:48;;;;;;;;;6.25;6.00;;;;;14.41;57.39;100323.25;5081472;28;45385;-71
2022/04/12 05:55:15;;;;;;;;;4.50;4.50;;;;;14.46;57.35;100325.69;5082290;27;45425;-71
2022/04/12 05:57:48;;;;;;;;;3.00;3.00;;;;;14.51;57.36;100334.97;5082202;27;46156;-70
2022/04/12 06:00:13;;;;;;;;;5.50;3.50;;;;;14.51;57.22;100334.97;5082456;27;45397;-71
2022/04/12 06:02:39;;;;;;;;;7.75;5.50;;;;;14.57;57.11;100331.19;5073294;27;45349;-75
2022/04/12 06:05:05;;;;;;;;;4.00;4.00;;;;;14.60;57.14;100331.88;5077962;28;45551;-77
2022/04/12 06:07:32;;;;;;;;;8.25;5.50;;;;;14.65;57.13;100336.06;5082236;27;45960;-78
2022/04/12 06:09:57;;;;;;;;;5.50;5.00;;;;;14.66;57.07;100342.97;5081932;27;45291;-77
2022/04/12 06:12:23;;;;;;;;;8.25;4.75;;;;;14.72;56.85;100345.28;5082386;27;45236;-77
2022/04/12 06:14:48;;;;;;;;;5.75;4.50;;;;;14.76;56.97;100350.25;5081484;27;45394;-74
2022/04/12 06:17:13;;;;;;;;;9.25;5.00;;;;;14.82;56.44;100341.28;5081607;27;45284;-74
2022/04/12 06:19:39;;;;;;;;;5.00;5.00;;;;;14.88;56.28;100335.72;5081769;27;45169;-73
2022/04/12 06:22:04;;;;;;;;;6.75;4.50;;;;;14.93;56.54;100345.94;5081469;27;45485;-74
2022/04/12 06:24:29;;;;;;;;;5.25;5.25;;;;;14.96;56.24;100333.53;5082040;27;45270;-74
2022/04/12 06:26:55;;;;;;;;;4.50;4.50;;;;;15.04;56.39;100348.88;5081559;27;45459;-74
2022/04/12 06:29:20;;;;;;;;;7.00;5.75;;;;;15.09;56.04;100354.69;5079671;27;45458;-73
2022/04/12 06:31:45;;;;;;;;;7.50;4.00;;;;;15.12;55.85;100351.91;5081242;27;45243;-74
2022/04/12 06:34:11;;;;;;;;;4.00;4.00;;;;;15.13;55.47;100351.00;5077859;28;45433;-72
2022/04/12 06:36:36;;;;;;;;;4.00;3.00;;;;;15.16;55.15;100350.81;5079700;27;45392;-70
2022/04/12 06:39:01;;;;;;;;;6.00;6.00;;;;;15.22;55.27;100355.75;5081800;27;45196;-73
2022/04/12 06:41:27;;;;;;;;;6.00;6.00;;;;;15.26;55.25;100362.50;5081947;27;45285;-71
2022/04/12 06:43:52;;;;;;;;;8.00;6.00;;;;;15.31;55.07;100372.75;5080928;27;45436;-71
2022/04/12 06:46:17;;;;;;;;;6.00;4.00;;;;;15.36;54.72;100382.03;5081280;27;46409;-70
2022/04/12 06:48:43;;;;;;;;;7.50;5.00;;;;;15.43;54.56;100379.97;5081235;27;45364;-75
2022/04/12 06:51:08;;;;;;;;;6.25;6.25;;;;;15.48;54.25;100384.00;5082135;27;45354;-74
2022/04/12 06:53:34;;;;;;;;;5.50;5.00;;;;;15.48;54.04;100384.00;5081497;27;45518;-73
2022/04/12 06:56:00;;;;;;;;;5.50;4.75;;;;;15.53;54.14;100389.84;5081521;27;46280;-71
2022/04/12 06:58:25;;;;;;;;;6.50;5.00;;;;;15.56;53.83;100390.59;5081094;27;45318;-71
2022/04/12 07:00:51;;;;;;;;;8.00;6.25;;;;;15.51;53.36;100396.09;5076564;28;45356;-74
2022/04/12 07:03:16;;;;;;;;;9.25;4.00;;;;;15.47;53.55;100408.50;5076088;28;45334;-72
2022/04/12 07:05:41;;;;;;;;;6.50;5.00;;;;;15.49;53.36;100417.13;5081003;27;45344;-70
2022/04/12 07:08:07;;;;;;;;;5.50;4.50;;;;;15.49;52.75;100421.53;5079833;28;45330;-71
2022/04/12 07:10:32;;;;;;;;;6.00;5.00;;;;;15.48;52.53;100417.22;5081474;27;45476;-71
2022/04/12 07:12:57;;;;;;;;;8.00;4.50;;;;;15.48;52.13;100407.59;5080991;27;45420;-71
2022/04/12 07:15:23;;;;;;;;;5.00;4.00;;;;;15.50;52.74;100417.97;5080918;27;46495;-71
2022/04/12 07:17:49;;;;;;;;;5.25;4.75;;;;;15.56;52.24;100422.88;5081116;27;45888;-72
2022/04/12 07:20:14;;;;;;;;;4.50;4.50;;;;;15.61;52.10;100430.50;5080910;27;45192;-73
2022/04/12 07:22:40;;;;;;;;;6.25;4.50;;;;;15.69;52.39;100434.44;5079241;27;45255;-72
2022/04/12 07:25:06;;;;;;;;;8.75;6.25;;;;;15.77;51.93;100434.00;5081232;28;46306;-72
2022/04/12 07:27:36;;;;;;;;;5.25;5.00;;;;;15.82;51.95;100437.25;5080680;27;45629;-69
2022/04/12 07:30:06;;;;;;;;;7.25;5.50;;;;;15.90;51.75;100427.19;5067975;28;45374;-78
2022/04/12 07:32:31;;;;;;;;;5.50;4.25;;;;;15.97;51.22;100425.91;5081299;27;45472;-73
2022/04/12 07:34:56;;;;;;;;;4.75;3.75;;;;;16.05;51.05;100425.50;5080994;27;47211;-74
2022/04/12 07:37:22;;;;;;;;;6.00;5.25;;;;;16.13;50.83;100437.25;5074705;27;45231;-74
2022/04/12 07:39:47;;;;;;;;;7.75;6.00;;;;;16.18;50.48;100434.38;5080942;27;45241;-73
2022/04/12 07:42:14;;;;;;;;;5.00;4.75;;;;;16.25;50.69;100429.66;5080901;27;45366;-74
2022/04/12 07:44:39;;;;;;;;;4.00;4.00;;;;;16.36;50.93;100429.88;5080813;27;45486;-73
2022/04/12 07:47:05;;;;;;;;;5.75;4.50;;;;;16.46;50.29;100435.47;5080618;27;45361;-73
2022/04/12 07:49:30;;;;;;;;;6.50;4.00;;;;;16.54;50.45;100436.72;5080781;27;45394;-72
2022/04/12 07:51:56;;;;;;;;;4.50;3.25;;;;;16.62;50.05;100428.44;5080671;27;45355;-76
2022/04/12 07:54:21;;;;;;;;;7.25;6.25;;;;;16.67;49.92;100432.50;5080754;27;46592;-74
2022/04/12 07:56:46;;;;;;;;;6.50;4.00;;;;;16.77;49.05;100445.06;5079188;27;45304;-74
2022/04/12 07:59:11;;;;;;;;;6.25;5.50;;;;;16.79;49.58;100441.41;5081000;27;45333;-74
2022/04/12 08:01:38;;;;;;;;;8.00;5.00;;;;;16.84;49.24;100430.69;5080396;27;45557;-73
2022/04/12 08:04:03;;;;;;;;;6.00;6.00;;;;;16.89;49.28;100428.63;5080513;27;46532;-74
2022/04/12 08:06:29;;;;;;;;;5.75;4.25;;;;;17.00;49.47;100428.81;5079109;28;45286;-71
2022/04/12 08:08:54;;;;;;;;;6.75;5.75;;;;;17.14;49.24;100423.59;5080796;27;45330;-73
2022/04/12 08:11:19;;;;;;;;;5.00;5.00;;;;;17.28;49.27;100430.66;5080314;27;45575;-73
2022/04/12 08:13:45;;;;;;;;;6.75;4.75;;;;;17.34;48.44;100415.38;5080307;27;46710;-71
2022/04/12 08:16:12;;;;;;;;;5.75;3.25;;;;;17.39;48.10;100409.00;5078633;27;45628;-70
2022/04/12 08:18:38;;;;;;;;;5.75;4.50;;;;;17.49;47.96;100407.50;5080410;27;45467;-69
2022/04/12 08:21:03;;;;;;;;;6.25;4.00;;;;;17.55;47.48;100421.09;5079872;27;45243;-72
2022/04/12 08:23:29;;;;;;;;;3.00;3.00;;;;;17.63;47.12;100416.25;5080091;27;46082;-71
2022/04/12 08:25:54;;;;;;;;;6.25;5.75;;;;;17.69;47.86;100417.66;5080101;27;45344;-71
2022/04/12 08:28:20;;;;;;;;;7.00;5.25;;;;;17.80;47.04;100422.22;5080271;27;45886;-71
2022/04/12 08:30:45;;;;;;;;;7.75;4.00;;;;;17.93;46.98;100421.38;5075143;28;45476;-72
2022/04/12 08:33:11;;;;;;;;;4.50;2.00;;;;;18.04;46.96;100427.75;5079222;28;45379;-70
2022/04/12 08:35:37;;;;;;;;;6.50;3.25;;;;;18.14;46.54;100432.31;5074388;27;45658;-72
2022/04/12 08:38:02;;;;;;;;;4.25;2.00;;;;;18.23;46.82;100425.66;5079437;28;45303;-72
2022/04/12 08:40:27;;;;;;;;;6.00;3.25;;;;;18.29;45.65;100427.88;5080217;27;45324;-71
2022/04/12 08:42:54;;;;;;;;;7.25;5.50;;;;;18.34;45.69;100420.53;5079922;27;46156;-71
2022/04/12 08:45:20;;;;;;;;;4.00;4.00;;;;;18.47;45.98;100408.25;5079900;27;45600;-73
2022/04/12 08:47:45;;;;;;;;;4.25;3.00;;;;;18.55;45.71;100410.38;5079075;28;45440;-73
2022/04/12 08:50:11;;;;;;;;;5.50;3.00;;;;;18.61;44.70;100417.03;5080259;27;45171;-77
2022/04/12 08:52:38;;;;;;;;;6.25;4.00;;;;;18.63;44.94;100428.34;5078540;28;47039;-73
2022/04/12 08:55:05;;;;;;;;;5.00;5.00;;;;;18.69;45.26;100415.63;5078640;28;45342;-73
2022/04/12 08:57:31;;;;;;;;;4.00;4.00;;;;;18.70;43.96;100414.69;5066539;28;45356;-73
2022/04/12 08:59:56;;;;;;;;;3.50;3.50;;;;;18.75;44.90;100422.25;5079090;27;45357;-76
2022/04/12 09:02:23;;;;;;;;;6.25;4.75;;;;;18.90;44.97;100421.25;5079461;27;45462;-73
2022/04/12 09:04:48;;;;;;;;;4.75;3.50;;;;;19.05;44.02;100429.91;5079791;27;45569;-71
2022/04/12 09:07:14;;;;;;;;;3.00;3.00;;;;;19.10;42.16;100428.66;5080028;27;45430;-73
2022/04/12 09:09:42;;;;;;;;;6.50;4.25;;;;;19.15;42.63;100425.69;5079907;27;45393;-73
2022/04/12 09:12:09;;;;;;;;;3.00;3.00;;;;;19.15;42.59;100421.25;5079542;28;45478;-71
2022/04/12 09:14:43;;;;;;;;;4.25;3.75;;;;;19.13;43.27;100420.53;5079544;27;45697;-69
2022/04/12 09:17:11;;;;;;;;;4.00;3.25;;;;;19.24;43.35;100424.25;5079886;28;45413;-68
2022/04/12 09:19:44;;;;;;;;;4.75;2.75;;;;;19.39;42.78;100404.72;5078175;28;45473;-72
2022/04/12 09:22:12;;;;;;;;;2.00;2.00;;;;;19.40;43.37;100406.41;5079785;28;46427;-67
2022/04/12 09:24:43;;;;;;;;;4.00;2.00;;;;;19.50;42.78;100403.97;5079629;27;45531;-68
2022/04/12 09:27:12;;;;;;;;;4.00;2.00;;;;;19.55;42.54;100408.00;5079757;28;45461;-68
2022/04/12 09:29:44;;;;;;;;;5.25;3.75;;;;;19.54;42.64;100416.88;5079262;27;45591;-67
2022/04/12 09:32:13;;;;;;;;;4.00;4.00;;;;;19.60;43.01;100400.59;5078986;27;46339;-68
2022/04/12 09:34:39;;;;;;;;;4.00;3.00;;;;;19.74;42.42;100403.13;5079231;27;45255;-68
2022/04/12 09:37:19;;;;;;;;;4.00;4.00;;;;;19.84;42.09;100398.06;5078702;27;45297;-67
2022/04/12 09:40:03;;;;;;;;;7.50;6.00;;;;;19.93;42.60;100394.75;5079160;27;45339;-67
2022/04/12 09:42:50;;;;;;;;;5.25;2.75;;;;;20.09;42.39;100393.66;5079139;27;45411;-67
2022/04/12 09:45:27;;;;;;;;;4.75;3.00;;;;;20.21;41.96;100398.84;5079053;27;45259;-66
2022/04/12 09:48:01;;;;;;;;;3.25;3.25;;;;;20.21;41.52;100403.28;5078988;28;45463;-66
2022/04/12 09:50:28;;;;;;;;;5.00;2.25;;;;;20.13;41.33;100397.75;5076330;28;45252;-66
2022/04/12 09:52:55;;;;;;;;;2.75;2.50;;;;;20.16;42.05;100400.16;5078834;27;45272;-66
2022/04/12 09:55:40;;;;;;;;;4.25;4.25;;;;;20.20;41.63;100402.44;5078925;27;45562;-67
2022/04/12 09:58:08;;;;;;;;;1.75;1.75;;;;;20.24;41.73;100382.81;5079148;27;45165;-67
2022/04/12 10:00:39;;;;;;;;;5.75;4.00;;;;;20.33;41.24;100384.78;5078253;27;45359;-67
2022/04/12 10:03:07;;;;;;;;;4.50;1.00;;;;;20.39;41.62;100382.63;5078769;28;45323;-67
2022/04/12 10:05:33;;;;;;;;;2.00;2.00;;;;;20.45;41.60;100375.16;5065576;28;45239;-66
2022/04/12 10:08:01;;;;;;;;;4.50;3.00;;;;;20.53;41.08;100390.41;5078772;27;45520;-67
2022/04/12 10:10:27;;;;;;;;;2.50;2.50;;;;;20.55;41.09;100393.78;5078654;27;45572;-66
2022/04/12 10:12:54;;;;;;;;;4.50;2.25;;;;;20.56;40.55;100387.53;5081631;27;45427;-67
2022/04/12 10:15:21;;;;;;;;;5.00;2.00;;;;;20.55;40.71;100380.56;5081242;27;45252;-67
2022/04/12 10:17:48;;;;;;;;;2.50;1.50;;;;;20.56;40.95;100385.72;5082275;27;45200;-69
2022/04/12 10:20:15;;;;;;;;;4.50;2.50;;;;;20.68;40.91;100367.31;5082003;27;45541;-68
2022/04/12 10:22:41;;;;;;;;;5.50;3.75;;;;;20.81;40.32;100360.09;5080651;27;46770;-67
2022/04/12 10:25:09;;;;;;;;;2.25;2.25;;;;;20.76;40.81;100357.81;5081929;27;45348;-66
2022/04/12 10:27:35;;;;;;;;;6.00;3.50;;;;;20.77;40.65;100351.59;5081658;27;45449;-67
2022/04/12 10:30:20;;;;;;;;;39.25;30.50;;;;;20.85;41.26;100349.22;5081488;27;45235;-64
2022/04/12 10:33:00;;;;;;;;;7.00;3.50;;;;;20.98;40.12;100343.81;5081158;27;45197;-69
2022/04/12 10:35:27;;;;;;;;;2.00;2.00;;;;;21.04;40.45;100342.53;5081116;27;45461;-66
2022/04/12 10:37:56;;;;;;;;;7.25;2.25;;;;;21.08;40.41;100349.25;5081055;27;45427;-65
2022/04/12 10:40:24;;;;;;;;;2.00;2.00;;;;;21.04;40.30;100346.00;5081512;27;45177;-66
2022/04/12 10:42:50;;;;;;;;;4.00;2.25;;;;;21.03;39.65;100331.13;5080659;27;46602;-67
2022/04/12 10:45:15;;;;;;;;;6.50;4.75;;;;;21.00;40.90;100330.47;5080641;27;45382;-68
2022/04/12 10:47:43;;;;;;;;;6.50;3.25;;;;;21.01;40.18;100348.84;5081197;27;45304;-66
2022/04/12 10:50:14;;;;;;;;;2.00;0.75;;;;;20.94;40.23;100363.50;5080476;27;45254;-67
2022/04/12 10:52:44;;;;;;;;;4.00;3.00;;;;;20.92;40.29;100365.44;5081271;27;46384;-67
2022/04/12 10:55:23;;;;;;;;;5.50;3.00;;;;;21.03;40.36;100365.47;5079970;27;45314;-73
2022/04/12 10:57:50;;;;;;;;;5.00;2.00;;;;;21.22;40.64;100368.38;5081293;27;45298;-76
2022/04/12 11:00:17;;;;;;;;;5.00;3.00;;;;;21.42;40.09;100374.75;5081226;27;45496;-73
2022/04/12 11:02:59;;;;;;;;;5.50;3.00;;;;;21.51;40.48;100367.91;5081243;27;45558;-72
2022/04/12 11:05:33;;;;;;;;;4.00;4.00;;;;;21.66;43.86;100372.00;5079563;28;45502;-62
2022/04/12 11:08:05;;;;;;;;;5.75;4.00;;;;;21.77;42.78;100392.28;5081573;27;45389;-60
2022/04/12 11:10:31;;;;;;;;;4.25;4.25;;;;;21.78;40.35;100397.44;5068566;28;45479;-71
2022/04/12 11:13:07;;;;;;;;;3.00;2.00;;;;;21.82;40.15;100408.63;5080254;27;46431;-67
2022/04/12 11:15:34;;;;;;;;;5.25;4.00;;;;;21.90;40.14;100403.56;5077805;28;45716;-68
2022/04/12 11:18:13;;;;;;;;;4.75;4.00;;;;;21.96;39.70;100412.81;5080010;27;45467;-74
2022/04/12 11:20:58;;;;;;;;;3.00;3.00;;;;;21.93;39.16;100405.97;5078941;28;45679;-71
2022/04/12 11:23:54;;;;;;;;;6.00;3.00;;;;;21.84;39.50;100418.13;5078818;28;46480;-72
2022/04/12 11:26:35;;;;;;;;;5.25;3.50;;;;;21.83;39.90;100421.75;5078924;28;45675;-65